Apopka, FL (32703)

4:32 PM EDT on May 29, 2015 (GMT -0400)
RCACF | | Change Station
CLOSE
Current Station
Personal Weather Station
Location: Apopka, FL
Elevation: 72 ft
Nearby Weather Stations

Elev 72 ft 28.64 °N, 81.51 °W | Updated 24 seconds ago

Partly Cloudy
Partly Cloudy
86.5 °F
Feels Like 83 °F
N
8.1
Wind Variable Wind from ENE
Gusts 9.8 mph

Today
High -- | Low -- °F
--% Chance of Precip.
Yesterday
High -- | Low -- °F
Precip. -- in
6:29 AM 8:17 PM
Waxing Gibbous, 85% visible
Pressure 30.10 in
Visibility 10.0 miles
Clouds Few 4300 ft
Scattered Clouds 5000 ft
Mostly Cloudy 8000 ft
Heat Index 83 °F
Dew Point 35 °F
Humidity 16%
Rainfall 0.00 in
Snow Depth Not available.
UV 6 out of 12
Pollen 4.60 out of 12
Air Quality Not available.
Flu Activity Sporadic
METAR KORL 291953Z 09015KT 10SM FEW043 SCT050 BKN080 30/19 A3009 RMK AO2 SLP191 T03000189

More Conditions Fewer Conditions

Pressure 30.10 in
Visibility 10.0 miles
Clouds Few 4300 ft
Scattered Clouds 5000 ft
Mostly Cloudy 8000 ft
Heat Index 83 °F
Dew Point 35 °F
Humidity 16%
Rainfall 0.00 in
Snow Depth Not available.
UV 6 out of 12
Pollen 4.60 out of 12
Air Quality Not available.
Flu Activity Sporadic
METAR KORL 291953Z 09015KT 10SM FEW043 SCT050 BKN080 30/19 A3009 RMK AO2 SLP191 T03000189

More Conditions Fewer Conditions

Nowcast | as of 1:55 PM EDT on May 29, 2015

Through 6 PM...shower activity with a few sprinkles moving inland this afternoon...will favor the central and western peninsula by late in the day. Brief downpours and shallow ponding of water on roadways are the main threats. Rough surf continues at area beaches. A moderate threat for dangerous rip currents also continues due to an onshore flow and an easterly swell. The rip current risk will be elevated through the afternoon due to tidal effects. If you must enter the rough surf do so in front of a lifeguard and never swim alone. Additional details...including graphics are available online at: http://www.Srh.NOAA.Gov/mlb/blog.Php

×

10-Day Weather Forecast

Almanac

Astronomy

May. 29, 2015 Rise Set
Actual Time
Civil Twilight
Nautical Twilight
Astronomical Twilight
Moon
Length of Visible Light
Length of Day
Tomorrow will be .
, % of the Moon is Illuminated

Today's Extremes

State Highs State Lows

Community

WunderPhotos

Upload Photos

1,825,347 photos uploaded!

WunderBlogs® & News

Nearby

Air Quality

  Air Quality AQ Index Pollutant
Not available.

Snow Depth

Station Depth Elevation

Earthquake Activity

City Distance Mag. Time & Date
Minimum magnitude displayed is 2.5.

Coastal Water Temperatures

Place Temperature

Stations

Nearby Weather Stations

Station Location Temp. Windchill Dew Point Humidity Wind Precip. Elev Updated Type